sensor_id;sensor_type;location;lat;lon;timestamp;P1;durP1;ratioP1;P2;durP2;ratioP2
12024;SDS011;6073;53.230;10.444;2023-05-10T00:01:50;6.35;;;3.65;;
12024;SDS011;6073;53.230;10.444;2023-05-10T00:04:16;5.55;;;3.70;;
12024;SDS011;6073;53.230;10.444;2023-05-10T00:06:42;4.55;;;3.58;;
12024;SDS011;6073;53.230;10.444;2023-05-10T00:09:07;4.55;;;3.63;;
12024;SDS011;6073;53.230;10.444;2023-05-10T00:11:33;6.82;;;3.80;;
12024;SDS011;6073;53.230;10.444;2023-05-10T00:13:58;4.47;;;3.78;;
12024;SDS011;6073;53.230;10.444;2023-05-10T00:16:24;5.45;;;3.50;;
12024;SDS011;6073;53.230;10.444;2023-05-10T00:18:50;4.70;;;3.72;;
12024;SDS011;6073;53.230;10.444;2023-05-10T00:21:15;7.00;;;3.60;;
12024;SDS011;6073;53.230;10.444;2023-05-10T00:23:41;5.78;;;3.38;;
12024;SDS011;6073;53.230;10.444;2023-05-10T00:26:06;4.90;;;3.42;;
12024;SDS011;6073;53.230;10.444;2023-05-10T00:28:32;4.22;;;3.50;;
12024;SDS011;6073;53.230;10.444;2023-05-10T00:30:57;4.18;;;3.40;;
12024;SDS011;6073;53.230;10.444;2023-05-10T00:33:23;6.30;;;3.42;;
12024;SDS011;6073;53.230;10.444;2023-05-10T00:35:49;3.58;;;2.95;;
12024;SDS011;6073;53.230;10.444;2023-05-10T00:38:14;5.40;;;3.78;;
12024;SDS011;6073;53.230;10.444;2023-05-10T00:40:40;4.40;;;3.28;;
12024;SDS011;6073;53.230;10.444;2023-05-10T00:43:06;4.18;;;3.78;;
12024;SDS011;6073;53.230;10.444;2023-05-10T00:45:32;5.47;;;3.70;;
12024;SDS011;6073;53.230;10.444;2023-05-10T00:48:03;4.30;;;3.50;;
12024;SDS011;6073;53.230;10.444;2023-05-10T00:50:30;5.28;;;3.88;;
12024;SDS011;6073;53.230;10.444;2023-05-10T00:52:57;6.03;;;4.18;;
12024;SDS011;6073;53.230;10.444;2023-05-10T00:55:25;4.72;;;3.65;;
12024;SDS011;6073;53.230;10.444;2023-05-10T00:57:51;6.03;;;3.85;;
12024;SDS011;6073;53.230;10.444;2023-05-10T01:00:18;3.85;;;3.45;;
12024;SDS011;6073;53.230;10.444;2023-05-10T01:02:44;3.75;;;3.45;;
12024;SDS011;6073;53.230;10.444;2023-05-10T01:05:14;6.47;;;3.88;;
12024;SDS011;6073;53.230;10.444;2023-05-10T01:07:40;3.88;;;3.38;;
12024;SDS011;6073;53.230;10.444;2023-05-10T01:10:06;4.47;;;3.70;;
12024;SDS011;6073;53.230;10.444;2023-05-10T01:12:33;6.45;;;3.58;;
12024;SDS011;6073;53.230;10.444;2023-05-10T01:15:02;5.00;;;4.05;;
12024;SDS011;6073;53.230;10.444;2023-05-10T01:17:28;7.43;;;4.43;;
12024;SDS011;6073;53.230;10.444;2023-05-10T01:19:54;4.47;;;3.40;;
12024;SDS011;6073;53.230;10.444;2023-05-10T01:33:59;6.53;;;4.05;;
12024;SDS011;6073;53.230;10.444;2023-05-10T01:36:42;5.68;;;3.78;;
12024;SDS011;6073;53.230;10.444;2023-05-10T01:39:24;5.10;;;3.88;;
12024;SDS011;6073;53.230;10.444;2023-05-10T01:44:54;4.78;;;3.53;;
12024;SDS011;6073;53.230;10.444;2023-05-10T01:47:44;3.88;;;3.30;;
12024;SDS011;6073;53.230;10.444;2023-05-10T01:50:18;4.13;;;3.72;;
12024;SDS011;6073;53.230;10.444;2023-05-10T01:52:48;5.05;;;4.18;;
12024;SDS011;6073;53.230;10.444;2023-05-10T01:55:20;3.90;;;3.60;;
12024;SDS011;6073;53.230;10.444;2023-05-10T01:57:49;4.47;;;3.60;;
12024;SDS011;6073;53.230;10.444;2023-05-10T02:00:21;3.78;;;3.47;;
12024;SDS011;6073;53.230;10.444;2023-05-10T02:02:48;5.72;;;3.63;;
12024;SDS011;6073;53.230;10.444;2023-05-10T02:05:16;3.83;;;3.42;;
12024;SDS011;6073;53.230;10.444;2023-05-10T02:07:42;6.38;;;3.72;;
12024;SDS011;6073;53.230;10.444;2023-05-10T02:10:09;5.22;;;3.80;;
12024;SDS011;6073;53.230;10.444;2023-05-10T02:12:36;4.25;;;3.65;;
12024;SDS011;6073;53.230;10.444;2023-05-10T02:15:06;9.90;;;4.65;;
12024;SDS011;6073;53.230;10.444;2023-05-10T02:17:33;4.05;;;3.50;;
12024;SDS011;6073;53.230;10.444;2023-05-10T02:20:01;4.65;;;3.60;;
12024;SDS011;6073;53.230;10.444;2023-05-10T02:22:28;5.22;;;4.03;;
12024;SDS011;6073;53.230;10.444;2023-05-10T02:24:54;5.43;;;4.00;;
12024;SDS011;6073;53.230;10.444;2023-05-10T02:27:22;7.53;;;4.22;;
12024;SDS011;6073;53.230;10.444;2023-05-10T02:29:50;4.55;;;3.78;;
12024;SDS011;6073;53.230;10.444;2023-05-10T02:32:17;5.57;;;3.78;;
12024;SDS011;6073;53.230;10.444;2023-05-10T02:34:43;4.30;;;3.83;;
12024;SDS011;6073;53.230;10.444;2023-05-10T02:37:11;7.45;;;4.00;;
12024;SDS011;6073;53.230;10.444;2023-05-10T02:39:39;7.43;;;3.70;;
12024;SDS011;6073;53.230;10.444;2023-05-10T02:42:09;6.57;;;3.95;;
12024;SDS011;6073;53.230;10.444;2023-05-10T02:44:40;4.45;;;3.55;;
12024;SDS011;6073;53.230;10.444;2023-05-10T02:47:06;4.40;;;3.60;;
12024;SDS011;6073;53.230;10.444;2023-05-10T02:49:32;6.40;;;4.07;;
12024;SDS011;6073;53.230;10.444;2023-05-10T02:52:00;3.67;;;3.35;;
12024;SDS011;6073;53.230;10.444;2023-05-10T02:54:29;4.80;;;4.28;;
12024;SDS011;6073;53.230;10.444;2023-05-10T02:56:58;4.80;;;4.30;;
12024;SDS011;6073;53.230;10.444;2023-05-10T02:59:25;5.57;;;3.88;;
12024;SDS011;6073;53.230;10.444;2023-05-10T03:01:51;5.45;;;3.60;;
12024;SDS011;6073;53.230;10.444;2023-05-10T03:04:17;6.05;;;3.90;;
12024;SDS011;6073;53.230;10.444;2023-05-10T03:06:43;5.15;;;4.30;;
12024;SDS011;6073;53.230;10.444;2023-05-10T03:09:09;4.80;;;3.75;;
12024;SDS011;6073;53.230;10.444;2023-05-10T03:14:29;5.38;;;4.00;;
12024;SDS011;6073;53.230;10.444;2023-05-10T03:20:08;6.30;;;3.85;;
12024;SDS011;6073;53.230;10.444;2023-05-10T03:22:46;7.35;;;3.70;;
12024;SDS011;6073;53.230;10.444;2023-05-10T03:25:16;4.97;;;4.10;;
12024;SDS011;6073;53.230;10.444;2023-05-10T03:27:43;4.28;;;3.88;;
12024;SDS011;6073;53.230;10.444;2023-05-10T03:30:10;4.75;;;3.97;;
12024;SDS011;6073;53.230;10.444;2023-05-10T03:32:37;5.22;;;3.70;;
12024;SDS011;6073;53.230;10.444;2023-05-10T03:35:09;4.50;;;3.65;;
12024;SDS011;6073;53.230;10.444;2023-05-10T03:37:36;4.63;;;3.92;;
12024;SDS011;6073;53.230;10.444;2023-05-10T03:40:02;4.90;;;3.75;;
12024;SDS011;6073;53.230;10.444;2023-05-10T03:42:28;5.30;;;4.18;;
12024;SDS011;6073;53.230;10.444;2023-05-10T03:44:54;4.05;;;3.60;;
12024;SDS011;6073;53.230;10.444;2023-05-10T03:47:20;8.43;;;4.50;;
12024;SDS011;6073;53.230;10.444;2023-05-10T03:49:45;5.43;;;4.40;;
12024;SDS011;6073;53.230;10.444;2023-05-10T03:52:11;4.95;;;4.18;;
12024;SDS011;6073;53.230;10.444;2023-05-10T03:54:37;5.32;;;4.35;;
12024;SDS011;6073;53.230;10.444;2023-05-10T03:57:03;4.72;;;3.90;;
12024;SDS011;6073;53.230;10.444;2023-05-10T03:59:28;5.00;;;4.28;;
12024;SDS011;6073;53.230;10.444;2023-05-10T04:01:54;5.07;;;4.03;;
12024;SDS011;6073;53.230;10.444;2023-05-10T04:04:20;4.40;;;4.00;;
12024;SDS011;6073;53.230;10.444;2023-05-10T04:06:46;5.10;;;3.90;;
12024;SDS011;6073;53.230;10.444;2023-05-10T04:09:12;4.85;;;4.00;;
12024;SDS011;6073;53.230;10.444;2023-05-10T04:11:37;4.65;;;4.00;;
12024;SDS011;6073;53.230;10.444;2023-05-10T04:14:03;4.88;;;3.80;;
12024;SDS011;6073;53.230;10.444;2023-05-10T04:16:29;5.00;;;4.10;;
12024;SDS011;6073;53.230;10.444;2023-05-10T04:18:54;4.40;;;3.83;;
12024;SDS011;6073;53.230;10.444;2023-05-10T04:21:20;5.20;;;3.92;;
12024;SDS011;6073;53.230;10.444;2023-05-10T04:23:46;4.93;;;3.90;;
12024;SDS011;6073;53.230;10.444;2023-05-10T04:26:12;5.68;;;4.25;;
12024;SDS011;6073;53.230;10.444;2023-05-10T04:28:38;4.45;;;4.00;;
12024;SDS011;6073;53.230;10.444;2023-05-10T04:31:04;4.78;;;3.90;;
12024;SDS011;6073;53.230;10.444;2023-05-10T04:33:30;4.72;;;3.78;;
12024;SDS011;6073;53.230;10.444;2023-05-10T04:35:56;6.43;;;4.30;;
12024;SDS011;6073;53.230;10.444;2023-05-10T04:38:22;5.25;;;3.88;;
12024;SDS011;6073;53.230;10.444;2023-05-10T04:40:48;5.45;;;3.85;;
12024;SDS011;6073;53.230;10.444;2023-05-10T04:43:13;7.05;;;3.97;;
12024;SDS011;6073;53.230;10.444;2023-05-10T04:45:39;4.35;;;3.92;;
12024;SDS011;6073;53.230;10.444;2023-05-10T04:48:04;5.40;;;3.70;;
12024;SDS011;6073;53.230;10.444;2023-05-10T04:50:30;4.72;;;3.80;;
12024;SDS011;6073;53.230;10.444;2023-05-10T04:52:56;5.50;;;4.38;;
12024;SDS011;6073;53.230;10.444;2023-05-10T04:55:22;4.60;;;3.95;;
12024;SDS011;6073;53.230;10.444;2023-05-10T04:57:47;4.53;;;3.67;;
12024;SDS011;6073;53.230;10.444;2023-05-10T05:00:13;4.00;;;3.60;;
12024;SDS011;6073;53.230;10.444;2023-05-10T05:02:42;4.32;;;3.88;;
12024;SDS011;6073;53.230;10.444;2023-05-10T05:05:09;4.30;;;3.85;;
12024;SDS011;6073;53.230;10.444;2023-05-10T05:07:34;4.72;;;3.97;;
12024;SDS011;6073;53.230;10.444;2023-05-10T05:10:00;4.07;;;3.75;;
12024;SDS011;6073;53.230;10.444;2023-05-10T05:12:25;6.15;;;4.18;;
12024;SDS011;6073;53.230;10.444;2023-05-10T05:14:51;4.32;;;3.92;;
12024;SDS011;6073;53.230;10.444;2023-05-10T05:17:16;4.18;;;3.78;;
12024;SDS011;6073;53.230;10.444;2023-05-10T05:19:42;3.72;;;3.38;;
12024;SDS011;6073;53.230;10.444;2023-05-10T05:22:07;5.47;;;3.70;;
12024;SDS011;6073;53.230;10.444;2023-05-10T05:24:36;5.60;;;3.80;;
12024;SDS011;6073;53.230;10.444;2023-05-10T05:27:03;5.28;;;3.88;;
12024;SDS011;6073;53.230;10.444;2023-05-10T05:29:28;4.60;;;3.78;;
12024;SDS011;6073;53.230;10.444;2023-05-10T05:31:54;8.23;;;4.10;;
12024;SDS011;6073;53.230;10.444;2023-05-10T05:34:20;5.88;;;4.03;;
12024;SDS011;6073;53.230;10.444;2023-05-10T05:36:47;4.07;;;3.53;;
12024;SDS011;6073;53.230;10.444;2023-05-10T05:39:12;7.30;;;3.95;;
12024;SDS011;6073;53.230;10.444;2023-05-10T05:41:38;4.53;;;3.88;;
12024;SDS011;6073;53.230;10.444;2023-05-10T05:44:04;7.75;;;3.90;;
12024;SDS011;6073;53.230;10.444;2023-05-10T05:46:29;4.70;;;3.97;;
12024;SDS011;6073;53.230;10.444;2023-05-10T05:48:55;4.45;;;4.05;;
12024;SDS011;6073;53.230;10.444;2023-05-10T05:51:21;5.65;;;3.67;;
12024;SDS011;6073;53.230;10.444;2023-05-10T05:53:46;4.10;;;3.55;;
12024;SDS011;6073;53.230;10.444;2023-05-10T05:56:12;4.13;;;3.72;;
12024;SDS011;6073;53.230;10.444;2023-05-10T05:58:37;4.60;;;3.67;;
12024;SDS011;6073;53.230;10.444;2023-05-10T06:01:03;5.97;;;3.50;;
12024;SDS011;6073;53.230;10.444;2023-05-10T06:03:28;3.85;;;3.50;;
12024;SDS011;6073;53.230;10.444;2023-05-10T06:05:54;5.13;;;3.90;;
12024;SDS011;6073;53.230;10.444;2023-05-10T06:08:19;5.18;;;4.20;;
12024;SDS011;6073;53.230;10.444;2023-05-10T06:10:45;5.80;;;4.53;;
12024;SDS011;6073;53.230;10.444;2023-05-10T06:13:11;3.80;;;3.42;;
12024;SDS011;6073;53.230;10.444;2023-05-10T06:15:36;5.18;;;3.47;;
12024;SDS011;6073;53.230;10.444;2023-05-10T06:18:02;5.70;;;3.92;;
12024;SDS011;6073;53.230;10.444;2023-05-10T06:20:28;4.55;;;3.97;;
12024;SDS011;6073;53.230;10.444;2023-05-10T06:22:53;5.05;;;3.60;;
12024;SDS011;6073;53.230;10.444;2023-05-10T06:25:19;4.50;;;4.10;;
12024;SDS011;6073;53.230;10.444;2023-05-10T06:27:45;4.70;;;3.50;;
12024;SDS011;6073;53.230;10.444;2023-05-10T06:30:10;5.10;;;4.00;;
12024;SDS011;6073;53.230;10.444;2023-05-10T06:32:38;4.50;;;4.10;;
12024;SDS011;6073;53.230;10.444;2023-05-10T06:35:03;5.28;;;3.55;;
12024;SDS011;6073;53.230;10.444;2023-05-10T06:37:29;5.43;;;3.63;;
12024;SDS011;6073;53.230;10.444;2023-05-10T06:39:55;3.72;;;3.42;;
12024;SDS011;6073;53.230;10.444;2023-05-10T06:42:20;7.22;;;4.28;;
12024;SDS011;6073;53.230;10.444;2023-05-10T06:44:46;6.15;;;4.32;;
12024;SDS011;6073;53.230;10.444;2023-05-10T06:47:11;4.55;;;3.67;;
12024;SDS011;6073;53.230;10.444;2023-05-10T06:49:37;4.88;;;3.97;;
12024;SDS011;6073;53.230;10.444;2023-05-10T06:52:02;4.65;;;4.10;;
12024;SDS011;6073;53.230;10.444;2023-05-10T06:54:29;4.68;;;3.97;;
12024;SDS011;6073;53.230;10.444;2023-05-10T06:56:54;5.38;;;4.07;;
12024;SDS011;6073;53.230;10.444;2023-05-10T06:59:20;4.68;;;3.15;;
12024;SDS011;6073;53.230;10.444;2023-05-10T07:01:46;4.65;;;3.80;;
12024;SDS011;6073;53.230;10.444;2023-05-10T07:04:12;3.97;;;3.60;;
12024;SDS011;6073;53.230;10.444;2023-05-10T07:06:38;7.43;;;4.72;;
12024;SDS011;6073;53.230;10.444;2023-05-10T07:09:04;4.32;;;3.92;;
12024;SDS011;6073;53.230;10.444;2023-05-10T07:11:29;4.35;;;3.92;;
12024;SDS011;6073;53.230;10.444;2023-05-10T07:13:55;6.63;;;4.35;;
12024;SDS011;6073;53.230;10.444;2023-05-10T07:16:20;4.50;;;4.10;;
12024;SDS011;6073;53.230;10.444;2023-05-10T07:18:46;3.70;;;3.40;;
12024;SDS011;6073;53.230;10.444;2023-05-10T07:21:12;3.95;;;3.60;;
12024;SDS011;6073;53.230;10.444;2023-05-10T07:23:37;4.25;;;3.22;;
12024;SDS011;6073;53.230;10.444;2023-05-10T07:26:03;5.38;;;3.72;;
12024;SDS011;6073;53.230;10.444;2023-05-10T07:28:29;4.20;;;3.80;;
12024;SDS011;6073;53.230;10.444;2023-05-10T07:30:54;4.03;;;3.60;;
12024;SDS011;6073;53.230;10.444;2023-05-10T07:33:20;6.10;;;4.00;;
12024;SDS011;6073;53.230;10.444;2023-05-10T07:35:46;4.63;;;3.85;;
12024;SDS011;6073;53.230;10.444;2023-05-10T07:38:11;4.03;;;3.45;;
12024;SDS011;6073;53.230;10.444;2023-05-10T07:40:37;4.95;;;3.72;;
12024;SDS011;6073;53.230;10.444;2023-05-10T07:43:03;4.40;;;3.92;;
12024;SDS011;6073;53.230;10.444;2023-05-10T07:45:29;4.93;;;4.03;;
12024;SDS011;6073;53.230;10.444;2023-05-10T07:47:55;7.53;;;3.33;;
12024;SDS011;6073;53.230;10.444;2023-05-10T07:50:20;6.07;;;3.95;;
12024;SDS011;6073;53.230;10.444;2023-05-10T07:52:46;4.18;;;3.78;;
12024;SDS011;6073;53.230;10.444;2023-05-10T07:55:12;4.47;;;3.67;;
12024;SDS011;6073;53.230;10.444;2023-05-10T07:57:38;4.13;;;3.67;;
12024;SDS011;6073;53.230;10.444;2023-05-10T08:00:04;5.30;;;3.90;;
12024;SDS011;6073;53.230;10.444;2023-05-10T08:02:30;4.18;;;3.47;;
12024;SDS011;6073;53.230;10.444;2023-05-10T08:04:56;4.93;;;3.40;;
12024;SDS011;6073;53.230;10.444;2023-05-10T08:07:22;4.38;;;3.55;;
12024;SDS011;6073;53.230;10.444;2023-05-10T08:09:49;4.22;;;3.83;;
12024;SDS011;6073;53.230;10.444;2023-05-10T08:12:15;4.60;;;4.20;;
12024;SDS011;6073;53.230;10.444;2023-05-10T08:14:40;5.10;;;3.60;;
12024;SDS011;6073;53.230;10.444;2023-05-10T08:17:06;5.22;;;3.97;;
12024;SDS011;6073;53.230;10.444;2023-05-10T08:19:32;4.20;;;3.63;;
12024;SDS011;6073;53.230;10.444;2023-05-10T08:21:58;5.97;;;3.63;;
12024;SDS011;6073;53.230;10.444;2023-05-10T08:24:23;6.50;;;4.05;;
12024;SDS011;6073;53.230;10.444;2023-05-10T08:26:49;6.15;;;4.10;;
12024;SDS011;6073;53.230;10.444;2023-05-10T08:29:15;6.38;;;3.97;;
12024;SDS011;6073;53.230;10.444;2023-05-10T08:31:40;4.68;;;3.70;;
12024;SDS011;6073;53.230;10.444;2023-05-10T08:34:06;8.02;;;4.15;;
12024;SDS011;6073;53.230;10.444;2023-05-10T08:36:32;5.15;;;3.80;;
12024;SDS011;6073;53.230;10.444;2023-05-10T08:38:58;4.72;;;4.10;;
12024;SDS011;6073;53.230;10.444;2023-05-10T08:41:25;5.03;;;4.30;;
12024;SDS011;6073;53.230;10.444;2023-05-10T08:43:51;6.18;;;4.07;;
12024;SDS011;6073;53.230;10.444;2023-05-10T08:46:19;4.13;;;3.72;;
12024;SDS011;6073;53.230;10.444;2023-05-10T08:48:46;8.38;;;4.53;;
12024;SDS011;6073;53.230;10.444;2023-05-10T08:51:13;5.88;;;4.32;;
12024;SDS011;6073;53.230;10.444;2023-05-10T08:53:40;4.10;;;3.70;;
12024;SDS011;6073;53.230;10.444;2023-05-10T08:56:06;5.18;;;4.10;;
12024;SDS011;6073;53.230;10.444;2023-05-10T08:58:32;5.13;;;4.47;;
12024;SDS011;6073;53.230;10.444;2023-05-10T09:00:57;5.88;;;4.68;;
12024;SDS011;6073;53.230;10.444;2023-05-10T09:03:24;6.20;;;4.57;;
12024;SDS011;6073;53.230;10.444;2023-05-10T09:05:49;6.20;;;4.50;;
12024;SDS011;6073;53.230;10.444;2023-05-10T09:08:16;6.57;;;4.53;;
12024;SDS011;6073;53.230;10.444;2023-05-10T09:10:42;4.65;;;4.18;;
12024;SDS011;6073;53.230;10.444;2023-05-10T09:13:09;5.07;;;4.47;;
12024;SDS011;6073;53.230;10.444;2023-05-10T09:15:36;5.40;;;4.70;;
12024;SDS011;6073;53.230;10.444;2023-05-10T09:18:02;4.88;;;4.38;;
12024;SDS011;6073;53.230;10.444;2023-05-10T09:20:28;4.95;;;4.53;;
12024;SDS011;6073;53.230;10.444;2023-05-10T09:22:53;6.30;;;4.35;;
12024;SDS011;6073;53.230;10.444;2023-05-10T09:25:19;5.72;;;4.65;;
12024;SDS011;6073;53.230;10.444;2023-05-10T09:27:45;8.25;;;5.18;;
12024;SDS011;6073;53.230;10.444;2023-05-10T09:30:16;5.30;;;4.53;;
12024;SDS011;6073;53.230;10.444;2023-05-10T09:32:43;4.97;;;4.38;;
12024;SDS011;6073;53.230;10.444;2023-05-10T09:35:11;5.15;;;4.50;;
12024;SDS011;6073;53.230;10.444;2023-05-10T09:37:45;5.05;;;4.47;;
12024;SDS011;6073;53.230;10.444;2023-05-10T09:40:16;4.75;;;4.35;;
12024;SDS011;6073;53.230;10.444;2023-05-10T09:45:34;6.20;;;4.65;;
12024;SDS011;6073;53.230;10.444;2023-05-10T09:48:01;5.05;;;4.55;;
12024;SDS011;6073;53.230;10.444;2023-05-10T09:50:27;5.25;;;4.30;;
12024;SDS011;6073;53.230;10.444;2023-05-10T09:55:25;7.07;;;4.30;;
12024;SDS011;6073;53.230;10.444;2023-05-10T09:58:00;8.50;;;4.82;;
12024;SDS011;6073;53.230;10.444;2023-05-10T10:00:27;5.65;;;4.57;;
12024;SDS011;6073;53.230;10.444;2023-05-10T10:02:56;6.35;;;4.95;;
12024;SDS011;6073;53.230;10.444;2023-05-10T10:05:42;5.88;;;4.85;;
12024;SDS011;6073;53.230;10.444;2023-05-10T10:08:08;7.05;;;4.50;;
12024;SDS011;6073;53.230;10.444;2023-05-10T10:10:34;4.85;;;4.35;;
12024;SDS011;6073;53.230;10.444;2023-05-10T10:13:01;7.55;;;5.15;;
12024;SDS011;6073;53.230;10.444;2023-05-10T10:15:27;5.07;;;4.57;;
12024;SDS011;6073;53.230;10.444;2023-05-10T10:17:53;5.82;;;4.65;;
12024;SDS011;6073;53.230;10.444;2023-05-10T10:20:19;5.40;;;4.90;;
12024;SDS011;6073;53.230;10.444;2023-05-10T10:22:46;6.80;;;5.03;;
12024;SDS011;6073;53.230;10.444;2023-05-10T10:25:13;5.70;;;5.18;;
12024;SDS011;6073;53.230;10.444;2023-05-10T10:36:01;8.02;;;6.05;;
12024;SDS011;6073;53.230;10.444;2023-05-10T10:38:38;7.47;;;5.75;;
12024;SDS011;6073;53.230;10.444;2023-05-10T10:57:32;7.63;;;6.93;;
12024;SDS011;6073;53.230;10.444;2023-05-10T11:00:27;7.68;;;6.22;;
12024;SDS011;6073;53.230;10.444;2023-05-10T11:03:06;8.00;;;6.88;;
12024;SDS011;6073;53.230;10.444;2023-05-10T11:05:45;7.72;;;6.93;;
12024;SDS011;6073;53.230;10.444;2023-05-10T11:13:29;7.80;;;7.03;;
12024;SDS011;6073;53.230;10.444;2023-05-10T11:15:58;6.93;;;6.22;;
12024;SDS011;6073;53.230;10.444;2023-05-10T11:18:35;8.07;;;7.28;;
12024;SDS011;6073;53.230;10.444;2023-05-10T11:21:02;7.55;;;6.85;;
12024;SDS011;6073;53.230;10.444;2023-05-10T11:23:30;8.38;;;7.53;;
12024;SDS011;6073;53.230;10.444;2023-05-10T11:26:08;8.30;;;6.82;;
12024;SDS011;6073;53.230;10.444;2023-05-10T11:28:40;8.02;;;7.25;;
12024;SDS011;6073;53.230;10.444;2023-05-10T11:31:07;7.97;;;7.25;;
12024;SDS011;6073;53.230;10.444;2023-05-10T11:33:42;7.30;;;6.60;;
12024;SDS011;6073;53.230;10.444;2023-05-10T11:36:10;7.60;;;6.78;;
12024;SDS011;6073;53.230;10.444;2023-05-10T11:38:39;7.18;;;6.55;;
12024;SDS011;6073;53.230;10.444;2023-05-10T11:41:07;6.82;;;6.20;;
12024;SDS011;6073;53.230;10.444;2023-05-10T11:43:35;7.80;;;6.95;;
12024;SDS011;6073;53.230;10.444;2023-05-10T11:46:03;8.57;;;7.70;;
12024;SDS011;6073;53.230;10.444;2023-05-10T11:48:30;8.52;;;7.03;;
12024;SDS011;6073;53.230;10.444;2023-05-10T11:50:56;7.70;;;7.00;;
12024;SDS011;6073;53.230;10.444;2023-05-10T11:53:22;6.97;;;6.38;;
12024;SDS011;6073;53.230;10.444;2023-05-10T11:55:50;6.93;;;6.22;;
12024;SDS011;6073;53.230;10.444;2023-05-10T11:58:17;6.72;;;6.13;;
12024;SDS011;6073;53.230;10.444;2023-05-10T12:00:43;7.32;;;6.63;;
12024;SDS011;6073;53.230;10.444;2023-05-10T12:03:10;7.03;;;5.80;;
12024;SDS011;6073;53.230;10.444;2023-05-10T12:05:36;7.43;;;6.72;;
12024;SDS011;6073;53.230;10.444;2023-05-10T12:08:14;7.40;;;6.68;;
12024;SDS011;6073;53.230;10.444;2023-05-10T12:10:41;6.97;;;6.28;;
12024;SDS011;6073;53.230;10.444;2023-05-10T12:13:13;8.07;;;6.25;;
12024;SDS011;6073;53.230;10.444;2023-05-10T12:15:39;7.35;;;6.68;;
12024;SDS011;6073;53.230;10.444;2023-05-10T12:18:05;6.65;;;6.05;;
12024;SDS011;6073;53.230;10.444;2023-05-10T12:20:33;7.47;;;6.82;;
12024;SDS011;6073;53.230;10.444;2023-05-10T12:22:59;7.30;;;6.60;;
12024;SDS011;6073;53.230;10.444;2023-05-10T12:25:31;7.90;;;6.75;;
12024;SDS011;6073;53.230;10.444;2023-05-10T12:27:59;7.35;;;6.65;;
12024;SDS011;6073;53.230;10.444;2023-05-10T12:30:30;7.65;;;6.95;;
12024;SDS011;6073;53.230;10.444;2023-05-10T12:33:15;8.38;;;6.70;;
12024;SDS011;6073;53.230;10.444;2023-05-10T12:35:46;7.35;;;6.65;;
12024;SDS011;6073;53.230;10.444;2023-05-10T12:38:26;8.02;;;7.15;;
12024;SDS011;6073;53.230;10.444;2023-05-10T12:41:00;8.05;;;7.35;;
12024;SDS011;6073;53.230;10.444;2023-05-10T12:43:27;7.90;;;7.07;;
12024;SDS011;6073;53.230;10.444;2023-05-10T12:45:53;9.00;;;7.18;;
12024;SDS011;6073;53.230;10.444;2023-05-10T12:48:19;9.30;;;7.45;;
12024;SDS011;6073;53.230;10.444;2023-05-10T12:50:45;7.75;;;6.88;;
12024;SDS011;6073;53.230;10.444;2023-05-10T12:53:10;7.63;;;6.57;;
12024;SDS011;6073;53.230;10.444;2023-05-10T12:55:38;6.57;;;5.97;;
12024;SDS011;6073;53.230;10.444;2023-05-10T12:58:04;6.10;;;5.60;;
12024;SDS011;6073;53.230;10.444;2023-05-10T13:00:30;6.90;;;6.20;;
12024;SDS011;6073;53.230;10.444;2023-05-10T13:02:55;7.32;;;6.50;;
12024;SDS011;6073;53.230;10.444;2023-05-10T13:05:21;7.05;;;6.45;;
12024;SDS011;6073;53.230;10.444;2023-05-10T13:07:46;7.32;;;6.63;;
12024;SDS011;6073;53.230;10.444;2023-05-10T13:10:12;5.85;;;5.25;;
12024;SDS011;6073;53.230;10.444;2023-05-10T13:12:38;6.03;;;5.53;;
12024;SDS011;6073;53.230;10.444;2023-05-10T13:15:03;6.10;;;5.60;;
12024;SDS011;6073;53.230;10.444;2023-05-10T13:17:29;5.32;;;4.82;;
12024;SDS011;6073;53.230;10.444;2023-05-10T13:19:55;5.82;;;5.03;;
12024;SDS011;6073;53.230;10.444;2023-05-10T13:22:20;6.57;;;5.03;;
12024;SDS011;6073;53.230;10.444;2023-05-10T13:24:46;5.55;;;4.93;;
12024;SDS011;6073;53.230;10.444;2023-05-10T13:27:12;5.50;;;5.00;;
12024;SDS011;6073;53.230;10.444;2023-05-10T13:29:37;5.10;;;4.70;;
12024;SDS011;6073;53.230;10.444;2023-05-10T13:32:03;5.55;;;5.03;;
12024;SDS011;6073;53.230;10.444;2023-05-10T13:34:29;5.10;;;4.60;;
12024;SDS011;6073;53.230;10.444;2023-05-10T13:36:54;4.55;;;4.15;;
12024;SDS011;6073;53.230;10.444;2023-05-10T13:39:21;4.28;;;3.97;;
12024;SDS011;6073;53.230;10.444;2023-05-10T13:41:47;4.63;;;4.22;;
12024;SDS011;6073;53.230;10.444;2023-05-10T13:44:13;4.93;;;4.53;;
12024;SDS011;6073;53.230;10.444;2023-05-10T13:46:39;4.70;;;4.28;;
12024;SDS011;6073;53.230;10.444;2023-05-10T13:49:08;4.97;;;4.50;;
12024;SDS011;6073;53.230;10.444;2023-05-10T13:51:34;4.03;;;3.72;;
12024;SDS011;6073;53.230;10.444;2023-05-10T13:54:01;4.88;;;4.38;;
12024;SDS011;6073;53.230;10.444;2023-05-10T13:56:27;4.60;;;4.15;;
12024;SDS011;6073;53.230;10.444;2023-05-10T13:58:53;4.28;;;3.88;;
12024;SDS011;6073;53.230;10.444;2023-05-10T14:01:18;4.40;;;4.00;;
12024;SDS011;6073;53.230;10.444;2023-05-10T14:03:44;4.30;;;4.00;;
12024;SDS011;6073;53.230;10.444;2023-05-10T14:06:10;3.88;;;3.58;;
12024;SDS011;6073;53.230;10.444;2023-05-10T14:08:36;4.47;;;4.07;;
12024;SDS011;6073;53.230;10.444;2023-05-10T14:11:01;4.38;;;3.83;;
12024;SDS011;6073;53.230;10.444;2023-05-10T14:13:27;3.92;;;3.63;;
12024;SDS011;6073;53.230;10.444;2023-05-10T14:15:53;3.90;;;3.60;;
12024;SDS011;6073;53.230;10.444;2023-05-10T14:18:19;3.20;;;3.00;;
12024;SDS011;6073;53.230;10.444;2023-05-10T14:20:45;4.13;;;3.58;;
12024;SDS011;6073;53.230;10.444;2023-05-10T14:23:10;3.65;;;3.35;;
12024;SDS011;6073;53.230;10.444;2023-05-10T14:25:39;4.30;;;3.72;;
12024;SDS011;6073;53.230;10.444;2023-05-10T14:28:05;4.20;;;3.80;;
12024;SDS011;6073;53.230;10.444;2023-05-10T14:30:31;4.25;;;3.83;;
12024;SDS011;6073;53.230;10.444;2023-05-10T14:32:59;3.47;;;3.17;;
12024;SDS011;6073;53.230;10.444;2023-05-10T14:35:26;4.10;;;3.42;;
12024;SDS011;6073;53.230;10.444;2023-05-10T14:37:52;3.70;;;2.95;;
12024;SDS011;6073;53.230;10.444;2023-05-10T14:40:18;3.35;;;3.03;;
12024;SDS011;6073;53.230;10.444;2023-05-10T14:42:43;3.22;;;2.92;;
12024;SDS011;6073;53.230;10.444;2023-05-10T14:45:09;3.47;;;3.17;;
12024;SDS011;6073;53.230;10.444;2023-05-10T14:47:35;3.15;;;2.85;;
12024;SDS011;6073;53.230;10.444;2023-05-10T14:50:01;2.92;;;2.63;;
12024;SDS011;6073;53.230;10.444;2023-05-10T14:52:27;3.60;;;2.55;;
12024;SDS011;6073;53.230;10.444;2023-05-10T14:54:52;2.70;;;2.50;;
12024;SDS011;6073;53.230;10.444;2023-05-10T14:57:18;3.35;;;2.95;;
12024;SDS011;6073;53.230;10.444;2023-05-10T14:59:44;3.60;;;3.30;;
12024;SDS011;6073;53.230;10.444;2023-05-10T15:02:09;3.40;;;3.10;;
12024;SDS011;6073;53.230;10.444;2023-05-10T15:04:35;3.35;;;3.05;;
12024;SDS011;6073;53.230;10.444;2023-05-10T15:07:01;3.10;;;2.80;;
12024;SDS011;6073;53.230;10.444;2023-05-10T15:09:26;3.00;;;2.80;;
12024;SDS011;6073;53.230;10.444;2023-05-10T15:11:52;3.20;;;2.90;;
12024;SDS011;6073;53.230;10.444;2023-05-10T15:14:18;2.70;;;2.50;;
12024;SDS011;6073;53.230;10.444;2023-05-10T15:16:44;4.13;;;2.65;;
12024;SDS011;6073;53.230;10.444;2023-05-10T15:19:09;3.33;;;2.90;;
12024;SDS011;6073;53.230;10.444;2023-05-10T15:21:35;3.17;;;2.80;;
12024;SDS011;6073;53.230;10.444;2023-05-10T15:24:04;2.45;;;2.25;;
12024;SDS011;6073;53.230;10.444;2023-05-10T15:26:30;3.08;;;2.80;;
12024;SDS011;6073;53.230;10.444;2023-05-10T15:28:56;3.75;;;2.90;;
12024;SDS011;6073;53.230;10.444;2023-05-10T15:31:22;2.83;;;2.55;;
12024;SDS011;6073;53.230;10.444;2023-05-10T15:33:47;2.97;;;2.75;;
12024;SDS011;6073;53.230;10.444;2023-05-10T15:36:13;2.55;;;2.35;;
12024;SDS011;6073;53.230;10.444;2023-05-10T15:38:38;4.40;;;3.15;;
12024;SDS011;6073;53.230;10.444;2023-05-10T15:41:04;2.95;;;2.45;;
12024;SDS011;6073;53.230;10.444;2023-05-10T15:43:30;2.97;;;2.70;;